sensor_id;sensor_type;location;lat;lon;timestamp;pressure;altitude;pressure_sealevel;temperature;humidity
15529;BME280;7866;52.280;9.500;2023-06-26T00:03:54;100164.28;;;22.38;69.74
15529;BME280;7866;52.280;9.500;2023-06-26T00:08:56;100156.44;;;22.42;69.18
15529;BME280;7866;52.280;9.500;2023-06-26T00:13:58;100156.69;;;22.40;69.38
15529;BME280;7866;52.280;9.500;2023-06-26T00:19:02;100150.16;;;22.41;68.84
15529;BME280;7866;52.280;9.500;2023-06-26T00:24:03;100148.09;;;22.70;66.87
15529;BME280;7866;52.280;9.500;2023-06-26T00:29:05;100148.09;;;22.70;66.67
15529;BME280;7866;52.280;9.500;2023-06-26T00:34:08;100141.91;;;22.80;65.90
15529;BME280;7866;52.280;9.500;2023-06-26T00:39:10;100133.69;;;22.75;66.76
15529;BME280;7866;52.280;9.500;2023-06-26T00:44:12;100146.75;;;22.73;65.90
15529;BME280;7866;52.280;9.500;2023-06-26T00:49:15;100141.88;;;22.75;66.07
15529;BME280;7866;52.280;9.500;2023-06-26T00:54:17;100135.19;;;22.66;66.00
15529;BME280;7866;52.280;9.500;2023-06-26T00:59:20;100135.50;;;22.47;67.18
15529;BME280;7866;52.280;9.500;2023-06-26T01:04:23;100119.00;;;22.59;66.58
15529;BME280;7866;52.280;9.500;2023-06-26T01:09:28;100120.13;;;22.41;66.70
15529;BME280;7866;52.280;9.500;2023-06-26T01:14:30;100124.78;;;22.41;66.97
15529;BME280;7866;52.280;9.500;2023-06-26T01:19:34;100104.19;;;22.33;67.10
15529;BME280;7866;52.280;9.500;2023-06-26T01:24:36;100097.81;;;22.22;67.45
15529;BME280;7866;52.280;9.500;2023-06-26T01:29:42;100094.25;;;22.44;67.05
15529;BME280;7866;52.280;9.500;2023-06-26T01:34:46;100094.13;;;22.55;65.98
15529;BME280;7866;52.280;9.500;2023-06-26T01:39:47;100089.28;;;22.41;66.44
15529;BME280;7866;52.280;9.500;2023-06-26T01:44:50;100081.81;;;22.31;66.76
15529;BME280;7866;52.280;9.500;2023-06-26T01:50:00;100068.97;;;22.53;64.91
15529;BME280;7866;52.280;9.500;2023-06-26T01:55:10;100065.06;;;22.66;64.54
15529;BME280;7866;52.280;9.500;2023-06-26T02:00:16;100064.00;;;22.72;64.00
15529;BME280;7866;52.280;9.500;2023-06-26T02:05:19;100072.16;;;22.67;64.40
15529;BME280;7866;52.280;9.500;2023-06-26T02:10:20;100059.38;;;22.95;62.21
15529;BME280;7866;52.280;9.500;2023-06-26T02:15:23;100061.09;;;23.06;61.88
15529;BME280;7866;52.280;9.500;2023-06-26T02:20:25;100059.56;;;23.15;61.53
15529;BME280;7866;52.280;9.500;2023-06-26T02:25:26;100054.13;;;23.15;61.69
15529;BME280;7866;52.280;9.500;2023-06-26T02:30:29;100050.44;;;23.31;61.11
15529;BME280;7866;52.280;9.500;2023-06-26T02:35:31;100046.69;;;23.43;60.62
15529;BME280;7866;52.280;9.500;2023-06-26T02:40:33;100035.69;;;23.32;60.56
15529;BME280;7866;52.280;9.500;2023-06-26T02:45:36;100038.34;;;23.22;61.15
15529;BME280;7866;52.280;9.500;2023-06-26T02:50:38;100036.19;;;23.29;60.84
15529;BME280;7866;52.280;9.500;2023-06-26T02:55:39;100027.50;;;23.38;60.25
15529;BME280;7866;52.280;9.500;2023-06-26T03:00:42;100021.56;;;23.46;59.85
15529;BME280;7866;52.280;9.500;2023-06-26T03:05:44;100016.84;;;23.36;60.52
15529;BME280;7866;52.280;9.500;2023-06-26T03:10:46;100022.31;;;23.36;60.49
15529;BME280;7866;52.280;9.500;2023-06-26T03:15:50;100011.66;;;23.34;59.96
15529;BME280;7866;52.280;9.500;2023-06-26T03:20:52;100004.94;;;23.52;59.22
15529;BME280;7866;52.280;9.500;2023-06-26T03:25:55;100007.69;;;23.57;59.14
15529;BME280;7866;52.280;9.500;2023-06-26T03:30:58;100000.00;;;23.49;59.60
15529;BME280;7866;52.280;9.500;2023-06-26T03:35:59;100003.03;;;23.53;59.65
15529;BME280;7866;52.280;9.500;2023-06-26T03:41:01;99997.63;;;23.58;59.06
15529;BME280;7866;52.280;9.500;2023-06-26T03:46:04;99994.44;;;23.71;58.96
15529;BME280;7866;52.280;9.500;2023-06-26T03:51:06;99994.97;;;23.68;59.22
15529;BME280;7866;52.280;9.500;2023-06-26T03:56:08;99997.50;;;23.80;59.03
15529;BME280;7866;52.280;9.500;2023-06-26T04:01:11;99995.03;;;23.78;58.75
15529;BME280;7866;52.280;9.500;2023-06-26T04:06:12;99997.22;;;23.81;59.19
15529;BME280;7866;52.280;9.500;2023-06-26T04:11:14;99988.44;;;23.74;59.44
15529;BME280;7866;52.280;9.500;2023-06-26T04:16:17;99984.50;;;23.65;59.45
15529;BME280;7866;52.280;9.500;2023-06-26T04:21:19;99989.50;;;23.68;59.88
15529;BME280;7866;52.280;9.500;2023-06-26T04:26:20;99985.13;;;23.72;59.36
15529;BME280;7866;52.280;9.500;2023-06-26T04:31:23;99974.66;;;23.59;59.86
15529;BME280;7866;52.280;9.500;2023-06-26T04:36:25;99975.69;;;23.53;60.18
15529;BME280;7866;52.280;9.500;2023-06-26T04:41:28;99970.63;;;23.67;59.67
15529;BME280;7866;52.280;9.500;2023-06-26T04:46:31;99963.44;;;24.08;58.88
15529;BME280;7866;52.280;9.500;2023-06-26T04:51:33;99964.13;;;24.41;57.89
15529;BME280;7866;52.280;9.500;2023-06-26T04:56:40;99955.97;;;24.71;56.99
15529;BME280;7866;52.280;9.500;2023-06-26T05:01:43;99962.03;;;24.94;56.62
15529;BME280;7866;52.280;9.500;2023-06-26T05:06:48;99952.44;;;25.12;56.45
15529;BME280;7866;52.280;9.500;2023-06-26T05:11:49;99956.00;;;25.22;56.02
15529;BME280;7866;52.280;9.500;2023-06-26T05:16:52;99956.00;;;25.38;55.87
15529;BME280;7866;52.280;9.500;2023-06-26T05:21:54;99960.63;;;25.58;55.08
15529;BME280;7866;52.280;9.500;2023-06-26T05:26:57;99952.97;;;25.49;55.88
15529;BME280;7866;52.280;9.500;2023-06-26T05:32:01;99948.78;;;25.67;55.15
15529;BME280;7866;52.280;9.500;2023-06-26T05:37:04;99938.66;;;25.63;55.36
15529;BME280;7866;52.280;9.500;2023-06-26T05:42:07;99943.81;;;25.85;55.57
15529;BME280;7866;52.280;9.500;2023-06-26T05:47:10;99939.63;;;26.08;55.14
15529;BME280;7866;52.280;9.500;2023-06-26T05:52:13;99945.06;;;26.18;54.42
15529;BME280;7866;52.280;9.500;2023-06-26T05:57:15;99940.06;;;26.30;54.64
15529;BME280;7866;52.280;9.500;2023-06-26T06:02:19;99943.06;;;26.28;54.08
15529;BME280;7866;52.280;9.500;2023-06-26T06:07:20;99935.69;;;26.24;54.51
15529;BME280;7866;52.280;9.500;2023-06-26T06:12:22;99933.00;;;26.63;53.98
15529;BME280;7866;52.280;9.500;2023-06-26T06:17:25;99912.19;;;26.57;53.39
15529;BME280;7866;52.280;9.500;2023-06-26T06:22:26;99924.97;;;26.72;53.93
15529;BME280;7866;52.280;9.500;2023-06-26T06:27:28;99931.53;;;26.76;52.82
15529;BME280;7866;52.280;9.500;2023-06-26T06:32:33;99933.09;;;26.87;52.67
15529;BME280;7866;52.280;9.500;2023-06-26T06:37:35;99930.47;;;27.06;52.28
15529;BME280;7866;52.280;9.500;2023-06-26T06:42:37;99943.50;;;27.24;52.17
15529;BME280;7866;52.280;9.500;2023-06-26T06:47:40;99931.31;;;27.36;50.94
15529;BME280;7866;52.280;9.500;2023-06-26T06:52:43;99936.88;;;27.31;51.60
15529;BME280;7866;52.280;9.500;2023-06-26T06:57:44;99941.31;;;27.26;51.33
15529;BME280;7866;52.280;9.500;2023-06-26T07:02:47;99932.06;;;27.17;52.44
15529;BME280;7866;52.280;9.500;2023-06-26T07:07:49;99937.78;;;26.87;53.06
15529;BME280;7866;52.280;9.500;2023-06-26T07:12:50;99937.25;;;27.19;52.55
15529;BME280;7866;52.280;9.500;2023-06-26T07:17:54;99926.72;;;27.55;51.91
15529;BME280;7866;52.280;9.500;2023-06-26T07:22:55;99938.63;;;27.74;51.74
15529;BME280;7866;52.280;9.500;2023-06-26T07:27:57;99927.03;;;27.78;51.39
15529;BME280;7866;52.280;9.500;2023-06-26T07:33:00;99929.78;;;27.78;52.34
15529;BME280;7866;52.280;9.500;2023-06-26T07:38:01;99940.66;;;27.88;51.15
15529;BME280;7866;52.280;9.500;2023-06-26T07:43:03;99949.00;;;27.83;51.75
15529;BME280;7866;52.280;9.500;2023-06-26T07:48:07;99936.44;;;27.95;51.72
15529;BME280;7866;52.280;9.500;2023-06-26T07:53:09;99943.38;;;27.93;52.23
15529;BME280;7866;52.280;9.500;2023-06-26T07:58:10;99953.91;;;28.29;51.68
15529;BME280;7866;52.280;9.500;2023-06-26T08:03:13;99954.75;;;28.29;51.34
15529;BME280;7866;52.280;9.500;2023-06-26T08:08:15;99950.16;;;27.77;53.49
15529;BME280;7866;52.280;9.500;2023-06-26T08:13:17;99945.50;;;27.77;52.60
15529;BME280;7866;52.280;9.500;2023-06-26T08:18:20;99943.81;;;27.76;53.09
15529;BME280;7866;52.280;9.500;2023-06-26T08:23:21;99934.91;;;27.60;53.47
15529;BME280;7866;52.280;9.500;2023-06-26T08:28:23;99937.25;;;27.19;54.32
15529;BME280;7866;52.280;9.500;2023-06-26T08:33:26;99955.34;;;27.54;53.54
15529;BME280;7866;52.280;9.500;2023-06-26T08:38:28;99978.38;;;28.11;51.90
15529;BME280;7866;52.280;9.500;2023-06-26T08:43:29;99984.66;;;28.98;50.84
15529;BME280;7866;52.280;9.500;2023-06-26T08:48:32;99991.50;;;28.62;51.20
15529;BME280;7866;52.280;9.500;2023-06-26T08:53:40;100000.94;;;28.94;51.04
15529;BME280;7866;52.280;9.500;2023-06-26T08:58:44;100015.94;;;29.07;50.10
15529;BME280;7866;52.280;9.500;2023-06-26T09:03:47;100030.66;;;28.59;51.20
15529;BME280;7866;52.280;9.500;2023-06-26T09:08:49;100017.19;;;28.58;51.29
15529;BME280;7866;52.280;9.500;2023-06-26T09:13:51;100016.81;;;28.83;50.80
15529;BME280;7866;52.280;9.500;2023-06-26T09:18:56;100032.22;;;28.46;51.66
15529;BME280;7866;52.280;9.500;2023-06-26T09:23:58;100040.66;;;28.74;50.48
15529;BME280;7866;52.280;9.500;2023-06-26T09:29:00;100056.78;;;27.61;53.14
15529;BME280;7866;52.280;9.500;2023-06-26T09:34:03;100033.59;;;27.96;52.80
15529;BME280;7866;52.280;9.500;2023-06-26T09:39:06;100049.50;;;27.46;55.21
15529;BME280;7866;52.280;9.500;2023-06-26T09:44:14;100062.56;;;26.86;55.51
15529;BME280;7866;52.280;9.500;2023-06-26T09:49:18;100053.44;;;26.90;56.54
15529;BME280;7866;52.280;9.500;2023-06-26T09:54:21;100068.19;;;27.10;55.58
15529;BME280;7866;52.280;9.500;2023-06-26T09:59:23;100079.88;;;27.31;55.71
15529;BME280;7866;52.280;9.500;2023-06-26T10:04:26;100096.13;;;27.27;56.33
15529;BME280;7866;52.280;9.500;2023-06-26T10:09:29;100101.88;;;26.76;58.99
15529;BME280;7866;52.280;9.500;2023-06-26T10:14:34;100117.22;;;25.92;60.46
15529;BME280;7866;52.280;9.500;2023-06-26T10:19:39;100115.84;;;25.43;62.72
15529;BME280;7866;52.280;9.500;2023-06-26T10:24:43;100106.22;;;25.56;62.24
15529;BME280;7866;52.280;9.500;2023-06-26T10:29:48;100112.28;;;26.89;58.58
15529;BME280;7866;52.280;9.500;2023-06-26T10:34:55;100116.09;;;26.08;60.83
15529;BME280;7866;52.280;9.500;2023-06-26T10:39:59;100129.28;;;25.96;61.40
15529;BME280;7866;52.280;9.500;2023-06-26T10:45:09;100131.44;;;25.33;61.39
15529;BME280;7866;52.280;9.500;2023-06-26T10:50:20;100134.72;;;25.14;61.34
15529;BME280;7866;52.280;9.500;2023-06-26T10:55:27;100133.94;;;25.65;60.57
15529;BME280;7866;52.280;9.500;2023-06-26T11:00:29;100134.22;;;25.73;60.24
15529;BME280;7866;52.280;9.500;2023-06-26T11:05:33;100134.75;;;25.55;60.86
15529;BME280;7866;52.280;9.500;2023-06-26T11:10:51;100139.41;;;25.44;61.95
15529;BME280;7866;52.280;9.500;2023-06-26T11:15:53;100140.25;;;26.01;59.68
15529;BME280;7866;52.280;9.500;2023-06-26T11:21:05;100143.56;;;25.93;60.32
15529;BME280;7866;52.280;9.500;2023-06-26T11:26:14;100149.16;;;26.73;58.16
15529;BME280;7866;52.280;9.500;2023-06-26T11:31:26;100153.13;;;26.46;58.17
15529;BME280;7866;52.280;9.500;2023-06-26T11:36:30;100153.66;;;26.33;58.16
15529;BME280;7866;52.280;9.500;2023-06-26T11:41:33;100168.22;;;25.72;58.92
15529;BME280;7866;52.280;9.500;2023-06-26T11:46:36;100175.88;;;25.35;60.18
15529;BME280;7866;52.280;9.500;2023-06-26T11:51:39;100180.34;;;24.93;61.49
15529;BME280;7866;52.280;9.500;2023-06-26T11:56:41;100180.28;;;25.51;59.84
15529;BME280;7866;52.280;9.500;2023-06-26T12:01:43;100186.38;;;26.04;58.37
15529;BME280;7866;52.280;9.500;2023-06-26T12:06:50;100174.69;;;26.78;55.96
15529;BME280;7866;52.280;9.500;2023-06-26T12:11:53;100190.25;;;27.14;53.72
15529;BME280;7866;52.280;9.500;2023-06-26T12:16:56;100200.63;;;25.96;56.90
15529;BME280;7866;52.280;9.500;2023-06-26T12:22:09;100194.34;;;25.90;57.81
15529;BME280;7866;52.280;9.500;2023-06-26T12:27:12;100199.53;;;26.07;57.05
15529;BME280;7866;52.280;9.500;2023-06-26T12:32:14;100198.97;;;26.20;55.40
15529;BME280;7866;52.280;9.500;2023-06-26T12:37:17;100202.00;;;25.88;56.06
15529;BME280;7866;52.280;9.500;2023-06-26T12:42:20;100205.59;;;25.84;54.58
15529;BME280;7866;52.280;9.500;2023-06-26T12:47:25;100198.44;;;26.34;52.82
15529;BME280;7866;52.280;9.500;2023-06-26T12:52:28;100205.03;;;25.92;52.29
15529;BME280;7866;52.280;9.500;2023-06-26T12:57:30;100212.19;;;26.13;53.17
15529;BME280;7866;52.280;9.500;2023-06-26T13:02:31;100208.06;;;26.11;51.95
15529;BME280;7866;52.280;9.500;2023-06-26T13:07:34;100206.09;;;26.42;50.43
15529;BME280;7866;52.280;9.500;2023-06-26T13:12:36;100200.38;;;26.08;51.07
15529;BME280;7866;52.280;9.500;2023-06-26T13:17:37;100196.63;;;26.94;50.58
15529;BME280;7866;52.280;9.500;2023-06-26T13:22:40;100197.59;;;27.23;49.07
15529;BME280;7866;52.280;9.500;2023-06-26T13:27:42;100196.59;;;26.99;47.95
15529;BME280;7866;52.280;9.500;2023-06-26T13:32:43;100193.16;;;27.33;46.91
15529;BME280;7866;52.280;9.500;2023-06-26T13:37:47;100192.59;;;27.36;46.39
15529;BME280;7866;52.280;9.500;2023-06-26T13:42:49;100199.09;;;27.94;45.38
15529;BME280;7866;52.280;9.500;2023-06-26T13:47:50;100190.50;;;28.01;45.32
15529;BME280;7866;52.280;9.500;2023-06-26T13:52:53;100207.25;;;28.39;44.90
15529;BME280;7866;52.280;9.500;2023-06-26T13:57:55;100203.16;;;27.08;45.98
15529;BME280;7866;52.280;9.500;2023-06-26T14:02:57;100200.22;;;26.89;46.98
15529;BME280;7866;52.280;9.500;2023-06-26T14:08:02;100200.22;;;27.49;45.34
15529;BME280;7866;52.280;9.500;2023-06-26T14:13:04;100221.31;;;28.03;43.55
15529;BME280;7866;52.280;9.500;2023-06-26T14:18:06;100211.31;;;27.34;44.27
15529;BME280;7866;52.280;9.500;2023-06-26T14:23:09;100202.34;;;27.08;45.58
15529;BME280;7866;52.280;9.500;2023-06-26T14:28:10;100207.78;;;27.23;44.71
15529;BME280;7866;52.280;9.500;2023-06-26T14:33:12;100214.34;;;26.52;45.66
15529;BME280;7866;52.280;9.500;2023-06-26T14:38:15;100214.63;;;25.99;46.63
15529;BME280;7866;52.280;9.500;2023-06-26T14:43:17;100216.53;;;26.45;45.55
15529;BME280;7866;52.280;9.500;2023-06-26T14:48:18;100208.84;;;26.52;46.69
15529;BME280;7866;52.280;9.500;2023-06-26T14:53:22;100214.63;;;25.89;47.31
15529;BME280;7866;52.280;9.500;2023-06-26T14:58:24;100215.75;;;26.03;47.79
15529;BME280;7866;52.280;9.500;2023-06-26T15:03:26;100235.69;;;25.68;47.68
15529;BME280;7866;52.280;9.500;2023-06-26T15:08:29;100222.06;;;26.14;46.26
15529;BME280;7866;52.280;9.500;2023-06-26T15:13:31;100225.59;;;26.25;45.62
15529;BME280;7866;52.280;9.500;2023-06-26T15:18:33;100231.31;;;25.67;46.50
15529;BME280;7866;52.280;9.500;2023-06-26T15:23:35;100213.38;;;25.14;46.38
15529;BME280;7866;52.280;9.500;2023-06-26T15:28:39;100217.59;;;24.89;47.40
15529;BME280;7866;52.280;9.500;2023-06-26T15:33:40;100229.38;;;25.47;46.74
15529;BME280;7866;52.280;9.500;2023-06-26T15:38:43;100230.84;;;25.02;46.04
15529;BME280;7866;52.280;9.500;2023-06-26T15:43:45;100228.59;;;24.94;47.06
15529;BME280;7866;52.280;9.500;2023-06-26T15:48:46;100246.41;;;24.97;46.70
15529;BME280;7866;52.280;9.500;2023-06-26T15:53:49;100248.19;;;25.18;46.44
15529;BME280;7866;52.280;9.500;2023-06-26T15:58:51;100241.84;;;25.13;46.07
15529;BME280;7866;52.280;9.500;2023-06-26T16:03:52;100246.78;;;24.63;46.46
15529;BME280;7866;52.280;9.500;2023-06-26T16:08:55;100256.13;;;24.67;45.40
15529;BME280;7866;52.280;9.500;2023-06-26T16:13:57;100258.25;;;24.60;46.30
15529;BME280;7866;52.280;9.500;2023-06-26T16:18:59;100259.47;;;24.74;46.40
15529;BME280;7866;52.280;9.500;2023-06-26T16:24:03;100267.69;;;24.74;46.62
15529;BME280;7866;52.280;9.500;2023-06-26T16:29:04;100279.97;;;24.34;46.60
15529;BME280;7866;52.280;9.500;2023-06-26T16:34:06;100269.50;;;24.26;47.11
15529;BME280;7866;52.280;9.500;2023-06-26T16:39:09;100290.47;;;23.89;46.75
15529;BME280;7866;52.280;9.500;2023-06-26T16:44:15;100294.94;;;23.95;46.14
15529;BME280;7866;52.280;9.500;2023-06-26T16:49:17;100291.00;;;23.85;44.91
15529;BME280;7866;52.280;9.500;2023-06-26T16:54:20;100292.56;;;24.03;44.73
15529;BME280;7866;52.280;9.500;2023-06-26T16:59:22;100287.91;;;24.04;43.63
15529;BME280;7866;52.280;9.500;2023-06-26T17:04:24;100291.22;;;24.06;44.18
15529;BME280;7866;52.280;9.500;2023-06-26T17:09:27;100298.47;;;24.22;43.49
15529;BME280;7866;52.280;9.500;2023-06-26T17:14:29;100303.75;;;24.02;44.73
15529;BME280;7866;52.280;9.500;2023-06-26T17:19:30;100307.53;;;23.96;45.40
15529;BME280;7866;52.280;9.500;2023-06-26T17:24:33;100318.06;;;23.82;46.10
15529;BME280;7866;52.280;9.500;2023-06-26T17:29:35;100322.53;;;23.66;46.38
15529;BME280;7866;52.280;9.500;2023-06-26T17:34:37;100321.69;;;23.44;46.46
15529;BME280;7866;52.280;9.500;2023-06-26T17:39:41;100320.28;;;23.41;46.27
15529;BME280;7866;52.280;9.500;2023-06-26T17:44:42;100327.16;;;23.44;45.50
15529;BME280;7866;52.280;9.500;2023-06-26T17:49:44;100327.22;;;23.27;45.80
15529;BME280;7866;52.280;9.500;2023-06-26T17:54:47;100338.59;;;23.02;45.78
15529;BME280;7866;52.280;9.500;2023-06-26T17:59:48;100349.84;;;23.05;45.62
15529;BME280;7866;52.280;9.500;2023-06-26T18:04:50;100347.94;;;22.89;45.82
15529;BME280;7866;52.280;9.500;2023-06-26T18:09:53;100357.47;;;22.86;46.18
15529;BME280;7866;52.280;9.500;2023-06-26T18:14:55;100362.19;;;23.08;46.24
15529;BME280;7866;52.280;9.500;2023-06-26T18:19:56;100360.38;;;22.80;46.63
15529;BME280;7866;52.280;9.500;2023-06-26T18:24:59;100363.00;;;23.08;46.16
15529;BME280;7866;52.280;9.500;2023-06-26T18:30:02;100378.41;;;22.98;46.20
15529;BME280;7866;52.280;9.500;2023-06-26T18:35:04;100371.13;;;22.86;46.70
15529;BME280;7866;52.280;9.500;2023-06-26T18:40:08;100373.44;;;22.78;47.06
15529;BME280;7866;52.280;9.500;2023-06-26T18:45:15;100378.75;;;22.68;47.39
15529;BME280;7866;52.280;9.500;2023-06-26T18:50:16;100390.41;;;22.46;46.67
15529;BME280;7866;52.280;9.500;2023-06-26T18:55:20;100391.34;;;22.23;48.00
15529;BME280;7866;52.280;9.500;2023-06-26T19:00:22;100400.88;;;22.09;48.09
15529;BME280;7866;52.280;9.500;2023-06-26T19:05:24;100397.91;;;22.10;48.00
15529;BME280;7866;52.280;9.500;2023-06-26T19:10:27;100407.19;;;21.98;48.40
15529;BME280;7866;52.280;9.500;2023-06-26T19:15:28;100409.09;;;21.97;48.80
15529;BME280;7866;52.280;9.500;2023-06-26T19:20:30;100414.41;;;21.63;49.19
15529;BME280;7866;52.280;9.500;2023-06-26T19:25:33;100428.19;;;21.45;49.60
15529;BME280;7866;52.280;9.500;2023-06-26T19:30:35;100430.34;;;21.43;49.57
15529;BME280;7866;52.280;9.500;2023-06-26T19:35:36;100434.78;;;21.14;50.58
15529;BME280;7866;52.280;9.500;2023-06-26T19:40:39;100450.19;;;20.97;51.72
15529;BME280;7866;52.280;9.500;2023-06-26T19:45:41;100453.84;;;20.90;52.04
15529;BME280;7866;52.280;9.500;2023-06-26T19:50:43;100461.28;;;20.83;52.84
15529;BME280;7866;52.280;9.500;2023-06-26T19:55:46;100471.00;;;20.79;53.36
15529;BME280;7866;52.280;9.500;2023-06-26T20:00:47;100482.34;;;20.76;53.54
15529;BME280;7866;52.280;9.500;2023-06-26T20:05:49;100476.19;;;20.81;53.49
15529;BME280;7866;52.280;9.500;2023-06-26T20:10:52;100480.59;;;20.52;54.56
15529;BME280;7866;52.280;9.500;2023-06-26T20:15:54;100482.25;;;20.53;55.14
15529;BME280;7866;52.280;9.500;2023-06-26T20:20:55;100481.69;;;20.51;55.22
15529;BME280;7866;52.280;9.500;2023-06-26T20:25:58;100489.84;;;20.62;55.92
15529;BME280;7866;52.280;9.500;2023-06-26T20:31:00;100489.50;;;20.59;55.64
15529;BME280;7866;52.280;9.500;2023-06-26T20:36:02;100505.97;;;20.46;56.33
15529;BME280;7866;52.280;9.500;2023-06-26T20:41:05;100519.25;;;20.24;56.97
15529;BME280;7866;52.280;9.500;2023-06-26T20:46:08;100519.03;;;19.88;57.78
15529;BME280;7866;52.280;9.500;2023-06-26T20:51:10;100519.16;;;19.93;58.10
15529;BME280;7866;52.280;9.500;2023-06-26T20:56:13;100526.72;;;19.91;58.56
15529;BME280;7866;52.280;9.500;2023-06-26T21:01:15;100523.69;;;19.81;58.62
15529;BME280;7866;52.280;9.500;2023-06-26T21:06:17;100524.44;;;19.70;59.10
15529;BME280;7866;52.280;9.500;2023-06-26T21:11:20;100530.66;;;19.52;60.16
15529;BME280;7866;52.280;9.500;2023-06-26T21:16:21;100529.75;;;19.58;59.53
15529;BME280;7866;52.280;9.500;2023-06-26T21:21:23;100525.66;;;19.74;59.47
15529;BME280;7866;52.280;9.500;2023-06-26T21:26:26;100526.56;;;19.68;59.40
15529;BME280;7866;52.280;9.500;2023-06-26T21:31:27;100529.28;;;19.68;59.54
15529;BME280;7866;52.280;9.500;2023-06-26T21:36:29;100534.75;;;19.36;60.10
15529;BME280;7866;52.280;9.500;2023-06-26T21:41:32;100533.16;;;19.29;60.93
15529;BME280;7866;52.280;9.500;2023-06-26T21:46:34;100547.06;;;19.39;60.95
15529;BME280;7866;52.280;9.500;2023-06-26T21:51:36;100546.44;;;19.12;61.51
15529;BME280;7866;52.280;9.500;2023-06-26T21:56:39;100548.53;;;19.10;61.05
15529;BME280;7866;52.280;9.500;2023-06-26T22:01:40;100546.78;;;19.22;61.29
15529;BME280;7866;52.280;9.500;2023-06-26T22:06:42;100550.66;;;19.08;61.29
15529;BME280;7866;52.280;9.500;2023-06-26T22:11:45;100549.69;;;19.27;61.32
15529;BME280;7866;52.280;9.500;2023-06-26T22:16:47;100547.25;;;19.19;61.28
15529;BME280;7866;52.280;9.500;2023-06-26T22:21:48;100558.41;;;19.29;61.87
15529;BME280;7866;52.280;9.500;2023-06-26T22:26:51;100556.63;;;18.91;62.06
15529;BME280;7866;52.280;9.500;2023-06-26T22:31:53;100559.94;;;19.18;61.79
15529;BME280;7866;52.280;9.500;2023-06-26T22:36:54;100556.41;;;18.86;62.14
15529;BME280;7866;52.280;9.500;2023-06-26T22:41:57;100559.00;;;18.75;62.64
15529;BME280;7866;52.280;9.500;2023-06-26T22:46:59;100561.09;;;18.66;61.79
15529;BME280;7866;52.280;9.500;2023-06-26T22:52:01;100566.94;;;18.63;62.27
15529;BME280;7866;52.280;9.500;2023-06-26T22:57:05;100564.56;;;18.35;62.02
15529;BME280;7866;52.280;9.500;2023-06-26T23:02:06;100567.75;;;18.25;62.55
15529;BME280;7866;52.280;9.500;2023-06-26T23:07:08;100571.75;;;18.16;62.47
15529;BME280;7866;52.280;9.500;2023-06-26T23:12:11;100566.03;;;18.37;62.10
15529;BME280;7866;52.280;9.500;2023-06-26T23:17:14;100566.91;;;18.25;62.63
15529;BME280;7866;52.280;9.500;2023-06-26T23:22:15;100565.69;;;18.20;62.22
15529;BME280;7866;52.280;9.500;2023-06-26T23:27:21;100574.09;;;17.86;63.32
15529;BME280;7866;52.280;9.500;2023-06-26T23:32:23;100579.09;;;17.69;62.88
15529;BME280;7866;52.280;9.500;2023-06-26T23:37:24;100574.09;;;17.59;63.20
15529;BME280;7866;52.280;9.500;2023-06-26T23:42:28;100571.81;;;17.49;63.46
15529;BME280;7866;52.280;9.500;2023-06-26T23:47:29;100575.16;;;17.45;63.45
15529;BME280;7866;52.280;9.500;2023-06-26T23:52:33;100577.25;;;17.56;63.19
15529;BME280;7866;52.280;9.500;2023-06-26T23:57:36;100579.53;;;17.53;63.41
